createdAt,value
2023-04-18T20:40:08.930Z,10.40
2023-04-18T20:42:38.794Z,10.56
2023-04-18T20:45:11.024Z,10.54
2023-04-18T20:47:41.417Z,10.49
2023-04-18T20:50:10.676Z,10.48
2023-04-18T20:52:38.593Z,10.49
2023-04-18T20:55:06.655Z,10.47
2023-04-18T20:57:34.475Z,10.45
2023-04-18T21:00:02.296Z,10.48
2023-04-18T21:02:36.328Z,10.46
2023-04-18T21:05:07.416Z,10.46
2023-04-18T21:07:36.248Z,10.43
2023-04-18T21:10:04.609Z,10.42
2023-04-18T21:12:35.933Z,10.42
2023-04-18T21:15:05.603Z,10.41
2023-04-18T21:17:33.816Z,10.40
2023-04-18T21:20:01.697Z,10.40
2023-04-18T21:22:31.061Z,10.39
2023-04-18T21:24:58.862Z,10.39
2023-04-18T21:27:26.606Z,10.35
2023-04-18T21:29:54.320Z,10.34
2023-04-18T21:32:22.027Z,10.35
2023-04-18T21:34:49.790Z,10.32
2023-04-18T21:37:17.543Z,10.33
2023-04-18T21:39:45.396Z,10.31
2023-04-18T21:42:13.126Z,10.30
2023-04-18T21:44:40.963Z,10.29
2023-04-18T21:47:08.701Z,10.25
2023-04-18T21:49:36.469Z,10.25
2023-04-18T21:52:04.302Z,10.23
2023-04-18T21:54:32.187Z,10.23
2023-04-18T21:56:59.919Z,10.23
2023-04-18T21:59:27.758Z,10.17
2023-04-18T22:02:01.441Z,10.16
2023-04-18T22:04:29.523Z,10.17
2023-04-18T22:06:57.706Z,10.15
2023-04-18T22:09:25.690Z,10.14
2023-04-18T22:11:56.946Z,10.12
2023-04-18T22:14:25.000Z,10.09
2023-04-18T22:16:54.250Z,10.07
2023-04-18T22:19:22.443Z,10.05
2023-04-18T22:21:50.132Z,10.04
2023-04-18T22:24:19.717Z,9.93
2023-04-18T22:26:47.666Z,9.99
2023-04-18T22:29:15.394Z,9.98
2023-04-18T22:31:43.358Z,9.96
2023-04-18T22:34:11.111Z,9.93
2023-04-18T22:36:39.024Z,9.91
2023-04-18T22:39:07.568Z,9.89
2023-04-18T22:41:35.436Z,9.90
2023-04-18T22:44:03.506Z,9.86
2023-04-18T22:46:33.098Z,9.80
2023-04-18T22:49:00.857Z,9.80
2023-04-18T22:51:29.026Z,9.77
2023-04-18T22:53:56.753Z,9.79
2023-04-18T22:56:24.483Z,9.74
2023-04-18T22:58:52.192Z,9.74
2023-04-18T23:01:20.180Z,9.73
2023-04-18T23:03:48.121Z,9.70
2023-04-18T23:06:16.441Z,9.69
2023-04-18T23:08:44.388Z,9.68
2023-04-18T23:11:13.752Z,9.67
2023-04-18T23:13:41.754Z,9.63
2023-04-18T23:16:09.462Z,9.62
2023-04-18T23:18:37.269Z,9.59
2023-04-18T23:21:05.238Z,9.58
2023-04-18T23:23:33.312Z,9.55
2023-04-18T23:26:01.108Z,9.54
2023-04-18T23:28:28.981Z,9.52
2023-04-18T23:30:56.734Z,9.48
2023-04-18T23:33:24.433Z,9.48
2023-04-18T23:35:52.183Z,9.48
2023-04-18T23:38:20.134Z,9.46
2023-04-18T23:40:47.796Z,9.45
2023-04-18T23:43:15.553Z,9.40
2023-04-18T23:45:44.120Z,9.40
2023-04-18T23:48:12.444Z,9.37
2023-04-18T23:50:47.983Z,9.38
2023-04-18T23:53:19.852Z,9.39
2023-04-18T23:55:50.098Z,9.37
2023-04-18T23:58:18.660Z,9.37
